Time;durP1;ratioP1;P1;durP2;ratioP2;P2;SDS_P1;SDS_P2;PMS_P1;PMS_P2;Temp;Humidity;BMP_temperature;BMP_pressure;BME280_temperature;BME280_humidity;BME280_pressure;Samples;Min_cycle;Max_cycle;Signal;HPM_P1;HPM_P2
2023/03/16 00:01:47;;;;;;;3.67;3.38;;;-0.80;99.90;;;;;;5061855;28;20208;-72
2023/03/16 00:04:14;;;;;;;4.57;3.53;;;-0.80;99.90;;;;;;5069041;28;20220;-72
2023/03/16 00:06:41;;;;;;;6.78;4.60;;;-0.80;99.90;;;;;;5072861;28;20909;-72
2023/03/16 00:09:08;;;;;;;4.75;4.15;;;-0.90;99.90;;;;;;5073715;28;20204;-72
2023/03/16 00:11:37;;;;;;;5.32;4.15;;;-0.80;99.90;;;;;;5064584;28;20207;-74
2023/03/16 00:14:04;;;;;;;6.53;4.25;;;-0.80;99.90;;;;;;5070126;28;20216;-74
2023/03/16 00:16:31;;;;;;;5.32;4.40;;;-0.80;99.90;;;;;;5041005;28;20267;-73
2023/03/16 00:18:58;;;;;;;4.28;3.40;;;-0.80;99.90;;;;;;5045873;28;20248;-74
2023/03/16 00:21:25;;;;;;;4.07;3.60;;;-0.90;99.90;;;;;;5082841;23;20229;-94
2023/03/16 00:23:52;;;;;;;5.72;4.35;;;-0.90;99.90;;;;;;5076605;28;20292;-94
2023/03/16 00:26:19;;;;;;;3.85;3.55;;;-0.90;99.90;;;;;;5066303;28;20200;-93
2023/03/16 00:28:48;;;;;;;5.80;4.38;;;-0.90;99.90;;;;;;5062701;28;20212;-95
2023/03/16 00:31:15;;;;;;;6.57;4.20;;;-0.90;99.90;;;;;;5066270;28;20263;-94
2023/03/16 00:33:43;;;;;;;6.05;5.25;;;-0.90;99.90;;;;;;5074058;28;20221;-94
2023/03/16 00:36:10;;;;;;;4.70;3.92;;;-1.00;99.90;;;;;;5074883;28;20182;-95
2023/03/16 00:38:39;;;;;;;4.57;4.10;;;-0.90;99.90;;;;;;5065055;28;20646;-94
2023/03/16 00:41:08;;;;;;;5.10;3.63;;;-1.00;99.90;;;;;;5053656;28;20225;-93
2023/03/16 00:43:39;;;;;;;4.68;4.18;;;-1.00;99.90;;;;;;5053304;28;20231;-93
2023/03/16 00:46:09;;;;;;;11.00;4.57;;;-1.00;99.90;;;;;;5054033;28;20252;-92
2023/03/16 00:48:37;;;;;;;6.63;5.32;;;-1.00;99.90;;;;;;5054225;28;20291;-93
2023/03/16 00:51:06;;;;;;;4.50;4.03;;;-1.00;99.90;;;;;;5054939;28;20723;-92
2023/03/16 00:53:33;;;;;;;5.82;4.18;;;-1.00;99.90;;;;;;5061117;28;20268;-92
2023/03/16 00:56:03;;;;;;;6.50;4.13;;;-1.00;99.90;;;;;;5054544;28;20219;-92
2023/03/16 00:58:34;;;;;;;5.43;4.18;;;-1.10;99.90;;;;;;5058837;28;20240;-92
2023/03/16 01:01:01;;;;;;;6.35;4.93;;;-1.00;99.90;;;;;;5054349;28;20229;-91
2023/03/16 01:03:30;;;;;;;6.07;4.50;;;-1.00;99.90;;;;;;5053655;28;20292;-92
2023/03/16 01:05:58;;;;;;;7.18;4.85;;;-1.10;99.90;;;;;;5053840;28;20205;-91
2023/03/16 01:08:27;;;;;;;5.35;4.13;;;-1.10;99.90;;;;;;5053233;28;20205;-90
2023/03/16 01:10:54;;;;;;;8.10;5.20;;;-1.10;99.90;;;;;;5053590;28;20221;-92
2023/03/16 01:13:23;;;;;;;6.38;4.65;;;-1.10;99.90;;;;;;5053570;28;20731;-92
2023/03/16 01:15:53;;;;;;;4.63;4.18;;;-1.10;99.90;;;;;;5053135;28;20201;-92
2023/03/16 01:18:21;;;;;;;8.25;5.40;;;-1.10;99.90;;;;;;5053610;28;20296;-92
2023/03/16 01:20:49;;;;;;;6.88;5.10;;;-1.10;99.90;;;;;;5052716;28;20225;-92
2023/03/16 01:23:17;;;;;;;7.05;5.03;;;-1.10;99.90;;;;;;5052299;28;20213;-92
2023/03/16 01:25:51;;;;;;;7.47;5.28;;;-1.10;99.90;;;;;;5054374;28;20205;-92
2023/03/16 01:28:19;;;;;;;7.03;4.93;;;-1.00;99.90;;;;;;5053725;28;20231;-92
2023/03/16 01:30:46;;;;;;;6.15;4.57;;;-1.00;99.90;;;;;;5056721;28;20228;-92
2023/03/16 01:33:13;;;;;;;4.78;4.28;;;-1.10;99.90;;;;;;5073694;28;20193;-94
2023/03/16 01:35:40;;;;;;;5.93;4.38;;;-1.20;99.90;;;;;;5076113;28;20184;-94
2023/03/16 01:38:08;;;;;;;4.65;4.25;;;-1.20;99.90;;;;;;5076049;28;20177;-95
2023/03/16 01:40:36;;;;;;;6.18;4.32;;;-1.20;99.90;;;;;;5060956;28;20221;-92
2023/03/16 01:43:07;;;;;;;7.43;5.57;;;-1.20;99.90;;;;;;5056618;28;20271;-92
2023/03/16 01:46:07;;;;;;;7.38;5.10;;;-1.20;99.90;;;;;;5056906;28;20203;-92
2023/03/16 01:48:37;;;;;;;9.05;6.40;;;-1.20;99.90;;;;;;5057632;28;20292;-92
2023/03/16 01:51:09;;;;;;;9.52;7.13;;;-1.10;99.90;;;;;;5057751;28;20224;-92
2023/03/16 01:53:39;;;;;;;10.13;6.85;;;-1.00;99.90;;;;;;5053187;28;20231;-92
2023/03/16 01:56:09;;;;;;;10.20;6.55;;;-0.90;99.90;;;;;;5053375;28;20283;-92
2023/03/16 01:58:38;;;;;;;8.63;6.80;;;-0.80;99.90;;;;;;5053091;28;20288;-92
2023/03/16 02:01:06;;;;;;;11.15;6.70;;;-0.80;99.90;;;;;;5052373;28;20231;-92
2023/03/16 02:03:34;;;;;;;12.50;7.18;;;-0.70;99.90;;;;;;5052422;28;20211;-92
2023/03/16 02:06:06;;;;;;;9.32;6.60;;;-0.60;99.90;;;;;;5052410;28;20212;-91
2023/03/16 02:08:34;;;;;;;10.32;7.40;;;-0.60;99.90;;;;;;5052391;28;20236;-92
2023/03/16 02:11:03;;;;;;;6.85;5.95;;;-0.60;99.90;;;;;;5053251;28;20231;-91
2023/03/16 02:13:35;;;;;;;6.32;5.75;;;-0.50;99.90;;;;;;5052093;28;20294;-91
2023/03/16 02:16:03;;;;;;;9.90;6.75;;;-0.50;99.90;;;;;;5052284;28;20288;-92
2023/03/16 02:18:31;;;;;;;8.80;6.63;;;-0.40;99.90;;;;;;5052564;28;20201;-92
2023/03/16 02:21:06;;;;;;;9.02;6.40;;;-0.40;99.90;;;;;;5052089;28;20236;-92
2023/03/16 02:23:34;;;;;;;9.68;7.40;;;-0.40;99.90;;;;;;5051774;28;20303;-92
2023/03/16 02:26:10;;;;;;;8.75;7.65;;;-0.40;99.90;;;;;;5052555;28;20598;-91
2023/03/16 02:28:50;;;;;;;8.45;6.28;;;-0.30;99.90;;;;;;5052678;28;20580;-92
2023/03/16 02:31:21;;;;;;;10.75;7.32;;;-0.30;99.90;;;;;;5052484;28;20402;-91
2023/03/16 02:33:50;;;;;;;8.65;6.20;;;-0.40;99.90;;;;;;5054159;28;20213;-92
2023/03/16 02:36:19;;;;;;;10.95;6.20;;;-0.40;99.90;;;;;;5055780;28;20283;-92
2023/03/16 02:38:46;;;;;;;11.18;8.35;;;-0.40;99.90;;;;;;5055607;28;20292;-92
2023/03/16 02:41:16;;;;;;;12.98;7.75;;;-0.40;99.90;;;;;;5055896;28;20668;-92
2023/03/16 02:43:49;;;;;;;11.40;7.10;;;-0.40;99.90;;;;;;5059766;28;20263;-92
2023/03/16 02:46:17;;;;;;;9.38;7.47;;;-0.30;99.90;;;;;;5058149;28;20201;-93
2023/03/16 02:48:51;;;;;;;9.80;7.88;;;-0.30;99.90;;;;;;5056832;28;20201;-92
2023/03/16 02:51:18;;;;;;;13.15;7.80;;;-0.30;99.90;;;;;;5056419;28;20251;-93
2023/03/16 02:53:45;;;;;;;8.02;6.22;;;-0.30;99.90;;;;;;5055382;28;20201;-93
2023/03/16 02:56:12;;;;;;;8.10;6.30;;;-0.30;99.90;;;;;;5055678;28;20632;-93
2023/03/16 02:58:39;;;;;;;9.93;6.65;;;-0.30;99.90;;;;;;5056051;28;20211;-93
2023/03/16 03:01:07;;;;;;;11.18;6.30;;;-0.30;99.90;;;;;;5055705;28;20730;-93
2023/03/16 03:03:34;;;;;;;10.77;6.80;;;-0.40;99.90;;;;;;5056692;28;20231;-93
2023/03/16 03:06:02;;;;;;;11.13;7.95;;;-0.40;99.90;;;;;;5058987;28;20201;-92
2023/03/16 03:08:31;;;;;;;10.23;6.28;;;-0.40;99.90;;;;;;5058518;28;20212;-92
2023/03/16 03:10:58;;;;;;;12.90;6.80;;;-0.50;99.90;;;;;;5058105;28;20201;-93
2023/03/16 03:13:25;;;;;;;8.45;6.70;;;-0.50;99.90;;;;;;5057786;28;20205;-92
2023/03/16 03:15:52;;;;;;;8.52;6.25;;;-0.60;99.90;;;;;;5050297;28;20220;-92
2023/03/16 03:18:20;;;;;;;7.82;6.47;;;-0.60;99.90;;;;;;5057781;28;20677;-92
2023/03/16 03:20:47;;;;;;;11.10;6.43;;;-0.60;99.90;;;;;;5058014;28;20323;-92
2023/03/16 03:23:16;;;;;;;7.18;6.15;;;-0.60;99.90;;;;;;5057912;28;20731;-92
2023/03/16 03:25:44;;;;;;;7.65;6.22;;;-0.60;99.90;;;;;;5057982;28;20289;-92
2023/03/16 03:28:11;;;;;;;7.65;6.10;;;-0.60;99.90;;;;;;5057733;28;20300;-92
2023/03/16 03:30:38;;;;;;;5.43;4.88;;;-0.70;99.90;;;;;;5057750;28;20224;-93
2023/03/16 03:33:05;;;;;;;7.35;5.70;;;-0.70;99.90;;;;;;5057833;28;20291;-92
2023/03/16 03:35:32;;;;;;;8.15;6.00;;;-0.80;99.90;;;;;;5057761;28;20219;-92
2023/03/16 03:38:00;;;;;;;8.20;5.93;;;-0.80;99.90;;;;;;5058528;28;20209;-92
2023/03/16 03:40:29;;;;;;;9.48;6.45;;;-0.80;99.90;;;;;;5057841;28;20291;-94
2023/03/16 03:42:56;;;;;;;7.57;6.20;;;-0.90;99.90;;;;;;5058772;28;20221;-92
2023/03/16 03:45:23;;;;;;;8.60;6.00;;;-0.90;99.90;;;;;;5057286;28;20240;-92
2023/03/16 03:47:50;;;;;;;8.63;5.22;;;-0.90;99.90;;;;;;5058317;28;20209;-93
2023/03/16 03:50:17;;;;;;;8.10;5.95;;;-1.00;99.90;;;;;;5058523;28;20209;-93
2023/03/16 03:52:45;;;;;;;7.50;6.38;;;-1.00;99.90;;;;;;5058667;28;20194;-92
2023/03/16 03:55:12;;;;;;;8.20;5.40;;;-1.00;99.90;;;;;;5058491;28;20209;-92
2023/03/16 03:57:41;;;;;;;7.60;5.93;;;-1.00;99.90;;;;;;5057550;28;20229;-92
2023/03/16 04:00:10;;;;;;;12.65;7.32;;;-1.10;99.90;;;;;;5057046;28;20197;-92
2023/03/16 04:02:37;;;;;;;7.30;6.32;;;-1.20;99.90;;;;;;5059295;28;20221;-93
2023/03/16 04:05:05;;;;;;;6.13;5.30;;;-1.10;99.90;;;;;;5064465;28;20209;-93
2023/03/16 04:07:33;;;;;;;10.98;7.07;;;-1.10;99.90;;;;;;5059721;28;20296;-94
2023/03/16 04:10:00;;;;;;;11.93;7.15;;;-1.10;99.90;;;;;;5062407;28;20201;-92
2023/03/16 04:12:27;;;;;;;7.05;6.18;;;-1.10;99.90;;;;;;5068329;28;20304;-93
2023/03/16 04:14:56;;;;;;;8.35;6.05;;;-1.10;99.90;;;;;;5060483;28;20268;-92
2023/03/16 04:17:23;;;;;;;8.73;6.45;;;-1.00;99.90;;;;;;5063173;28;20519;-92
2023/03/16 04:19:51;;;;;;;10.07;6.57;;;-1.10;99.90;;;;;;5062662;28;20296;-94
2023/03/16 04:22:18;;;;;;;6.53;5.85;;;-1.10;99.90;;;;;;5066711;28;20256;-94
2023/03/16 04:24:45;;;;;;;5.85;5.20;;;-1.10;99.90;;;;;;5068343;28;20259;-93
2023/03/16 04:27:12;;;;;;;7.55;6.18;;;-1.10;99.90;;;;;;5062824;28;20197;-94
2023/03/16 04:29:42;;;;;;;9.63;6.43;;;-1.10;99.90;;;;;;5062258;28;20205;-93
2023/03/16 04:32:11;;;;;;;6.82;5.60;;;-1.10;99.90;;;;;;5060515;28;20224;-91
2023/03/16 04:34:40;;;;;;;8.18;5.85;;;-1.00;99.90;;;;;;5054986;28;20205;-92
2023/03/16 04:37:07;;;;;;;7.45;5.70;;;-1.10;99.90;;;;;;5061299;28;20185;-91
2023/03/16 04:39:34;;;;;;;7.70;5.72;;;-1.20;99.90;;;;;;5064722;28;20410;-91
2023/03/16 04:42:11;;;;;;;9.80;6.63;;;-1.20;99.90;;;;;;5064995;28;20225;-92
2023/03/16 04:44:43;;;;;;;7.35;5.85;;;-1.20;99.90;;;;;;5062668;28;20204;-92
2023/03/16 04:47:12;;;;;;;8.35;6.60;;;-1.20;99.90;;;;;;5058934;28;20219;-93
2023/03/16 04:49:39;;;;;;;8.95;5.35;;;-1.20;99.90;;;;;;5061478;28;20193;-93
2023/03/16 04:52:06;;;;;;;10.93;5.50;;;-1.30;99.90;;;;;;5063997;28;20223;-92
2023/03/16 04:54:34;;;;;;;8.68;5.85;;;-1.30;99.90;;;;;;5067155;28;20196;-93
2023/03/16 04:57:08;;;;;;;8.57;5.90;;;-1.30;99.90;;;;;;5078159;28;20204;-93
2023/03/16 05:03:13;;;;;;;5.80;5.00;;;-1.40;99.90;;;;;;5088565;28;20248;-94
2023/03/16 05:09:26;;;;;;;7.70;5.45;;;-1.50;99.90;;;;;;5043435;28;20256;-93
2023/03/16 05:20:57;;;;;;;7.70;6.57;;;-1.70;99.90;;;;;;5020437;28;20447;-71
2023/03/16 05:23:25;;;;;;;7.70;5.70;;;-1.80;99.90;;;;;;5017271;28;20333;-71
2023/03/16 05:25:51;;;;;;;10.38;6.03;;;-1.80;99.90;;;;;;5085745;22;20769;-70
2023/03/16 05:28:18;;;;;;;6.28;5.30;;;-1.80;99.90;;;;;;5054329;28;20201;-71
2023/03/16 05:30:45;;;;;;;6.00;5.40;;;-1.80;99.90;;;;;;5069403;28;20200;-69
2023/03/16 05:33:12;;;;;;;5.88;5.28;;;-1.70;99.90;;;;;;5052953;28;20201;-70
2023/03/16 05:35:39;;;;;;;9.10;5.90;;;-1.70;99.90;;;;;;5041583;28;20209;-70
2023/03/16 05:38:06;;;;;;;6.95;5.53;;;-1.70;99.90;;;;;;5070111;28;20200;-70
2023/03/16 05:40:34;;;;;;;7.85;4.93;;;-1.80;99.90;;;;;;5068628;28;20576;-70
2023/03/16 05:43:01;;;;;;;7.20;5.25;;;-1.80;99.90;;;;;;5049834;28;20221;-70
2023/03/16 05:45:28;;;;;;;8.52;6.05;;;-1.80;99.90;;;;;;5040815;28;20652;-70
2023/03/16 05:47:55;;;;;;;8.82;6.03;;;-1.70;99.90;;;;;;5042165;28;20668;-70
2023/03/16 05:50:22;;;;;;;6.93;5.00;;;-1.70;99.90;;;;;;5041862;28;20197;-70
2023/03/16 05:52:49;;;;;;;6.43;5.75;;;-1.70;99.90;;;;;;5066441;28;20289;-70
2023/03/16 05:55:18;;;;;;;9.13;5.40;;;-1.70;99.90;;;;;;5041265;28;20221;-70
2023/03/16 05:57:46;;;;;;;9.25;5.47;;;-1.70;99.90;;;;;;5068683;28;20196;-70
2023/03/16 06:00:15;;;;;;;9.77;6.50;;;-1.70;99.90;;;;;;5069893;28;20201;-70
2023/03/16 06:02:43;;;;;;;9.88;6.60;;;-1.70;99.90;;;;;;5069490;28;20221;-70
2023/03/16 06:05:10;;;;;;;8.95;5.63;;;-1.70;99.90;;;;;;5069734;28;20225;-69
2023/03/16 06:07:37;;;;;;;7.30;5.85;;;-1.60;99.90;;;;;;5069568;28;20200;-70
2023/03/16 06:10:05;;;;;;;6.82;6.10;;;-1.60;99.90;;;;;;5073772;28;20200;-69
2023/03/16 06:12:33;;;;;;;9.73;5.22;;;-1.60;99.90;;;;;;5073408;28;20197;-69
2023/03/16 06:15:01;;;;;;;13.60;7.28;;;-1.50;99.90;;;;;;5073559;28;20216;-69
2023/03/16 06:17:28;;;;;;;12.05;6.30;;;-1.50;99.90;;;;;;5073203;28;20207;-68
2023/03/16 06:19:55;;;;;;;8.88;5.85;;;-1.40;99.90;;;;;;5073586;28;20211;-69
2023/03/16 06:22:23;;;;;;;8.05;5.35;;;-1.40;99.90;;;;;;5104712;22;20232;-92
2023/03/16 06:24:50;;;;;;;7.10;5.57;;;-1.30;99.90;;;;;;5070569;28;20252;-92
2023/03/16 06:27:19;;;;;;;6.85;5.30;;;-1.30;99.90;;;;;;5075202;28;20227;-92
2023/03/16 06:29:45;;;;;;;8.43;5.80;;;-1.20;99.90;;;;;;5096408;28;20223;-92
2023/03/16 06:32:15;;;;;;;8.13;6.55;;;-1.10;99.90;;;;;;5087909;28;20225;-92
2023/03/16 06:34:41;;;;;;;9.70;6.80;;;-1.10;99.90;;;;;;5098082;28;20188;-91
2023/03/16 06:37:09;;;;;;;9.02;6.72;;;-1.00;99.90;;;;;;5091576;28;20184;-92
2023/03/16 06:39:36;;;;;;;8.18;6.05;;;-1.00;99.90;;;;;;5090810;28;20240;-91
2023/03/16 06:42:04;;;;;;;9.07;5.55;;;-0.90;99.90;;;;;;5092915;28;20309;-92
2023/03/16 06:44:31;;;;;;;8.75;6.18;;;-0.90;99.90;;;;;;5090974;28;20204;-91
2023/03/16 06:46:58;;;;;;;9.52;6.28;;;-0.80;99.90;;;;;;5069689;28;20200;-91
2023/03/16 06:49:26;;;;;;;7.18;5.85;;;-0.70;99.90;;;;;;5060570;28;20211;-92
2023/03/16 06:51:53;;;;;;;7.72;5.38;;;-0.60;99.90;;;;;;5071331;28;20221;-92
2023/03/16 06:54:20;;;;;;;8.63;5.88;;;-0.50;99.90;;;;;;5071360;28;20570;-92
2023/03/16 06:56:47;;;;;;;11.00;7.03;;;-0.40;99.90;;;;;;5068567;28;20207;-91
2023/03/16 06:59:14;;;;;;;8.68;7.18;;;-0.20;99.90;;;;;;5077786;28;20201;-92
2023/03/16 07:01:43;;;;;;;8.48;6.70;;;0.00;99.90;;;;;;5079603;28;20234;-91
2023/03/16 07:04:11;;;;;;;10.75;7.13;;;0.20;99.90;;;;;;5079486;28;20227;-92
2023/03/16 07:06:41;;;;;;;11.60;7.47;;;0.40;99.90;;;;;;5073569;28;20205;-93
2023/03/16 07:09:09;;;;;;;10.32;7.13;;;0.70;99.90;;;;;;5086415;28;20295;-93
2023/03/16 07:11:36;;;;;;;10.38;8.07;;;1.00;99.90;;;;;;5080908;28;20227;-92
2023/03/16 07:14:03;;;;;;;10.32;8.55;;;1.50;99.90;;;;;;5079500;28;20203;-92
2023/03/16 07:16:47;;;;;;;8.98;6.43;;;2.10;99.90;;;;;;5082474;28;20287;-94
2023/03/16 07:19:14;;;;;;;9.57;7.00;;;2.60;99.90;;;;;;5079589;28;20291;-94
2023/03/16 07:21:42;;;;;;;10.75;7.60;;;3.20;99.90;;;;;;5079736;28;20319;-93
2023/03/16 07:24:11;;;;;;;10.20;7.50;;;3.80;99.90;;;;;;5080929;28;20248;-94
2023/03/16 07:26:38;;;;;;;12.00;7.50;;;4.30;99.90;;;;;;5080766;28;20196;-93
2023/03/16 07:29:06;;;;;;;12.07;8.05;;;4.90;99.90;;;;;;5081331;28;20201;-93
2023/03/16 07:31:33;;;;;;;7.32;6.57;;;5.40;99.90;;;;;;5081685;28;20220;-94
2023/03/16 07:34:01;;;;;;;8.85;7.20;;;6.00;99.90;;;;;;5080604;28;20257;-93
2023/03/16 07:36:28;;;;;;;8.45;6.97;;;6.50;99.90;;;;;;5079549;28;20261;-93
2023/03/16 07:38:56;;;;;;;10.35;7.63;;;7.00;99.90;;;;;;5079660;28;20207;-94
2023/03/16 07:41:24;;;;;;;11.07;7.40;;;7.50;99.90;;;;;;5080288;28;20230;-93
2023/03/16 07:43:52;;;;;;;8.45;6.70;;;8.10;99.90;;;;;;5080801;28;20212;-93
2023/03/16 07:46:19;;;;;;;9.35;7.50;;;8.50;99.90;;;;;;5081402;28;20601;-93
2023/03/16 07:48:47;;;;;;;11.90;7.13;;;8.80;99.90;;;;;;5081867;28;20632;-93
2023/03/16 07:51:14;;;;;;;9.80;7.50;;;9.20;99.90;;;;;;5084493;28;20223;-93
2023/03/16 07:53:41;;;;;;;9.23;7.47;;;9.50;99.90;;;;;;5082231;28;20204;-94
2023/03/16 07:56:11;;;;;;;9.88;6.55;;;9.80;99.90;;;;;;5083108;28;20215;-93
2023/03/16 07:58:38;;;;;;;8.57;6.93;;;10.40;99.90;;;;;;5085798;28;20210;-94
2023/03/16 08:01:06;;;;;;;8.90;7.40;;;10.60;99.90;;;;;;5094892;28;20208;-94
2023/03/16 08:03:34;;;;;;;6.07;5.22;;;11.30;99.90;;;;;;5098516;28;20274;-95
2023/03/16 08:06:04;;;;;;;7.80;6.00;;;11.80;99.90;;;;;;5098213;28;20267;-93
2023/03/16 08:08:32;;;;;;;7.50;6.40;;;12.10;99.90;;;;;;5069191;28;20231;-92
2023/03/16 08:10:58;;;;;;;8.30;6.95;;;12.20;99.90;;;;;;5056832;28;20274;-92
2023/03/16 08:13:27;;;;;;;7.35;6.10;;;12.80;99.90;;;;;;5057167;28;20201;-91
2023/03/16 08:15:57;;;;;;;6.22;5.63;;;13.00;99.90;;;;;;5056098;28;20251;-92
2023/03/16 08:18:25;;;;;;;7.30;6.03;;;13.00;99.10;;;;;;5067787;28;20207;-95
2023/03/16 08:20:52;;;;;;;6.18;5.57;;;13.40;99.10;;;;;;5085213;23;20252;-73
2023/03/16 08:23:20;;;;;;;8.00;6.37;;;13.70;99.00;;;;;;4992597;28;20225;-73
2023/03/16 08:25:46;;;;;;;6.73;5.53;;;13.80;99.20;;;;;;4977195;28;20502;-73
2023/03/16 08:28:14;;;;;;;5.50;5.00;;;14.10;97.20;;;;;;4980466;28;20543;-73
2023/03/16 08:30:46;;;;;;;9.93;6.63;;;14.50;97.00;;;;;;4972563;28;20505;-73
2023/03/16 08:33:13;;;;;;;7.47;5.60;;;14.40;96.90;;;;;;4975246;28;20465;-73
2023/03/16 08:35:42;;;;;;;5.33;4.83;;;14.30;97.20;;;;;;4976201;28;20466;-73
2023/03/16 08:38:09;;;;;;;6.17;4.53;;;14.20;96.10;;;;;;4976768;28;20471;-73
2023/03/16 08:40:36;;;;;;;5.20;4.70;;;14.50;95.10;;;;;;4978003;28;20495;-73
2023/03/16 08:43:03;;;;;;;5.57;4.93;;;14.90;96.00;;;;;;4976748;28;20463;-72
2023/03/16 08:45:30;;;;;;;10.50;5.30;;;15.20;94.50;;;;;;4975008;28;20475;-72
2023/03/16 08:47:58;;;;;;;4.77;4.33;;;15.10;93.50;;;;;;4975628;28;20471;-72
2023/03/16 08:50:26;;;;;;;5.80;5.20;;;15.30;93.70;;;;;;4975613;28;20463;-73
2023/03/16 08:52:53;;;;;;;4.90;4.50;;;15.80;94.20;;;;;;4974475;28;20467;-73
2023/03/16 08:55:19;;;;;;;5.60;5.10;;;16.00;93.80;;;;;;4973590;28;20486;-73
2023/03/16 08:57:47;;;;;;;5.30;4.57;;;16.50;93.90;;;;;;4974733;28;20467;-73
2023/03/16 09:00:16;;;;;;;4.87;4.47;;;16.80;92.30;;;;;;4973415;28;21032;-73
2023/03/16 09:02:44;;;;;;;4.80;4.30;;;16.40;91.00;;;;;;4972780;28;20891;-72
2023/03/16 09:05:14;;;;;;;5.03;4.27;;;16.00;92.40;;;;;;4972675;28;20933;-72
2023/03/16 09:07:42;;;;;;;8.27;4.00;;;16.00;91.70;;;;;;4972411;28;20467;-72
2023/03/16 09:10:12;;;;;;;5.33;4.33;;;16.40;91.70;;;;;;4972477;28;20531;-73
2023/03/16 09:12:39;;;;;;;4.17;3.77;;;16.80;91.70;;;;;;4972535;28;20473;-73
2023/03/16 09:15:08;;;;;;;4.30;3.90;;;17.20;90.90;;;;;;4971888;28;20482;-72
2023/03/16 09:17:36;;;;;;;5.40;4.60;;;17.90;91.10;;;;;;4972568;28;20566;-71
2023/03/16 09:20:03;;;;;;;5.57;4.10;;;18.40;90.10;;;;;;4972449;28;20497;-73
2023/03/16 09:22:32;;;;;;;4.30;3.90;;;18.20;86.50;;;;;;4972546;28;20878;-73
2023/03/16 09:24:58;;;;;;;4.33;3.93;;;18.20;87.00;;;;;;4974820;28;21014;-73
2023/03/16 09:27:25;;;;;;;4.20;3.80;;;18.30;88.80;;;;;;4993501;28;20965;-73
2023/03/16 09:29:55;;;;;;;5.97;4.67;;;18.10;87.20;;;;;;4992301;28;20889;-71
2023/03/16 09:32:22;;;;;;;4.67;4.00;;;18.20;88.10;;;;;;4992983;28;20549;-73
2023/03/16 09:34:49;;;;;;;4.57;3.73;;;18.60;86.80;;;;;;4992391;28;20625;-72
2023/03/16 09:37:16;;;;;;;4.03;3.70;;;18.30;86.90;;;;;;4992082;28;20469;-72
2023/03/16 09:39:44;;;;;;;5.53;3.80;;;17.80;89.60;;;;;;4991977;28;20488;-73
2023/03/16 09:42:18;;;;;;;3.50;3.07;;;17.80;84.90;;;;;;4992083;28;20573;-71
2023/03/16 09:44:54;;;;;;;3.97;3.40;;;17.80;86.10;;;;;;4995843;28;20490;-72
2023/03/16 09:47:26;;;;;;;3.60;3.30;;;18.30;87.30;;;;;;4996534;28;20462;-72
2023/03/16 09:49:56;;;;;;;3.60;3.30;;;18.70;86.20;;;;;;4997136;28;20462;-72
2023/03/16 09:52:33;;;;;;;4.63;3.47;;;18.90;84.70;;;;;;4996563;28;20469;-72
2023/03/16 09:55:07;;;;;;;5.00;3.60;;;17.70;83.80;;;;;;4988379;28;20486;-72
2023/03/16 09:57:39;;;;;;;4.63;3.83;;;16.70;87.90;;;;;;4997007;28;21016;-72
2023/03/16 10:00:16;;;;;;;7.30;3.50;;;16.10;87.80;;;;;;4996763;28;21016;-71
2023/03/16 10:03:05;;;;;;;5.80;3.50;;;15.30;88.30;;;;;;4988914;28;20490;-71
2023/03/16 10:05:33;;;;;;;5.53;4.00;;;14.60;90.30;;;;;;4980403;28;20986;-71
2023/03/16 10:08:08;;;;;;;4.23;3.47;;;14.70;90.70;;;;;;4976284;28;20963;-72
2023/03/16 10:11:03;;;;;;;3.80;3.30;;;14.90;91.10;;;;;;4975240;28;20467;-72
2023/03/16 10:13:37;;;;;;;6.50;3.13;;;14.90;89.30;;;;;;4975455;28;20478;-72
2023/03/16 10:16:11;;;;;;;3.17;2.70;;;14.70;90.00;;;;;;4974633;28;20465;-72
2023/03/16 10:18:43;;;;;;;3.50;3.20;;;14.80;88.20;;;;;;4974946;28;20478;-72
2023/03/16 10:21:13;;;;;;;3.67;3.23;;;15.10;90.00;;;;;;4974500;28;20470;-72
2023/03/16 10:23:41;;;;;;;3.83;3.40;;;15.50;89.50;;;;;;4976779;28;20474;-72
2023/03/16 10:26:15;;;;;;;4.87;3.60;;;16.00;90.10;;;;;;4975623;28;20521;-71
2023/03/16 10:28:44;;;;;;;4.27;3.50;;;16.40;90.00;;;;;;4973984;28;20841;-72
2023/03/16 10:31:12;;;;;;;4.00;3.37;;;17.00;89.50;;;;;;4975110;28;20503;-72
2023/03/16 10:33:40;;;;;;;5.60;4.00;;;17.40;88.60;;;;;;4976261;28;20537;-72
2023/03/16 10:36:14;;;;;;;3.37;3.07;;;17.90;88.60;;;;;;4975399;28;20473;-72
2023/03/16 10:38:45;;;;;;;3.60;2.77;;;18.30;85.10;;;;;;4987357;28;20478;-72
2023/03/16 10:41:24;;;;;;;4.40;3.07;;;18.80;81.90;;;;;;4973737;28;20521;-72
2023/03/16 10:43:53;;;;;;;4.40;3.23;;;19.10;82.20;;;;;;4979485;28;20967;-72
2023/03/16 10:46:20;;;;;;;3.07;2.73;;;19.90;80.20;;;;;;4987746;28;20470;-72
2023/03/16 10:48:53;;;;;;;5.47;3.40;;;20.20;80.50;;;;;;4979544;28;20466;-72
2023/03/16 10:51:25;;;;;;;3.47;3.10;;;20.20;81.50;;;;;;4979283;28;20458;-73
2023/03/16 10:53:52;;;;;;;2.90;2.57;;;21.10;79.50;;;;;;4977767;28;20490;-72
2023/03/16 10:56:24;;;;;;;3.20;2.90;;;21.20;77.30;;;;;;4977745;28;20897;-71
2023/03/16 10:58:51;;;;;;;4.20;2.43;;;21.50;78.30;;;;;;4977728;28;20487;-73
2023/03/16 11:01:21;;;;;;;3.40;2.87;;;21.80;78.20;;;;;;4976526;28;20498;-72
2023/03/16 11:03:50;;;;;;;3.10;2.80;;;21.70;76.40;;;;;;4976721;28;20486;-72
2023/03/16 11:06:23;;;;;;;3.03;2.60;;;21.60;75.50;;;;;;4980525;28;21001;-72
2023/03/16 11:08:51;;;;;;;4.73;3.17;;;21.70;78.20;;;;;;4995869;28;20501;-72
2023/03/16 11:11:24;;;;;;;3.40;3.00;;;21.60;74.80;;;;;;4996041;28;20470;-72
2023/03/16 11:13:57;;;;;;;2.40;2.20;;;20.80;74.70;;;;;;4995554;28;20600;-72
2023/03/16 11:16:29;;;;;;;2.93;2.67;;;20.90;76.30;;;;;;4995828;28;20454;-72
2023/03/16 11:18:58;;;;;;;2.83;2.43;;;21.30;75.10;;;;;;4995378;28;20458;-72
2023/03/16 11:21:37;;;;;;;2.60;2.40;;;21.30;77.30;;;;;;4982820;28;20475;-72
2023/03/16 11:24:06;;;;;;;4.10;2.80;;;21.50;73.20;;;;;;4971428;28;20519;-73
2023/03/16 11:26:39;;;;;;;4.90;2.40;;;21.40;74.10;;;;;;4975418;28;20466;-71
2023/03/16 11:29:16;;;;;;;2.87;2.50;;;21.50;75.50;;;;;;4974744;28;20478;-72
2023/03/16 11:31:48;;;;;;;3.03;2.70;;;21.60;74.40;;;;;;4975662;28;20479;-72
2023/03/16 11:34:16;;;;;;;3.50;3.20;;;21.50;74.70;;;;;;4974610;28;20887;-72
2023/03/16 11:36:50;;;;;;;2.60;2.40;;;21.70;73.80;;;;;;4982958;28;20528;-72
2023/03/16 11:39:30;;;;;;;2.60;2.40;;;21.80;73.30;;;;;;4969104;28;20474;-74
2023/03/16 11:42:12;;;;;;;2.77;2.10;;;22.10;71.00;;;;;;4973937;28;20489;-74
2023/03/16 11:44:45;;;;;;;3.60;2.47;;;21.70;70.30;;;;;;4974396;28;20511;-74
2023/03/16 11:47:30;;;;;;;2.67;2.47;;;21.30;72.10;;;;;;4974141;28;20471;-73
2023/03/16 11:50:01;;;;;;;2.30;2.10;;;21.80;70.50;;;;;;4975008;28;20467;-74
2023/03/16 11:52:44;;;;;;;2.57;2.37;;;21.80;71.30;;;;;;4974610;28;20498;-73
2023/03/16 11:55:24;;;;;;;2.20;2.00;;;21.60;70.30;;;;;;4990736;28;20483;-73
2023/03/16 11:58:03;;;;;;;2.43;2.17;;;21.20;72.70;;;;;;4975554;28;20502;-74
2023/03/16 12:00:40;;;;;;;2.47;2.27;;;21.90;72.10;;;;;;4990518;28;20474;-74
2023/03/16 12:03:40;;;;;;;2.20;2.00;;;22.10;69.80;;;;;;4996297;28;21316;-73
2023/03/16 12:06:21;;;;;;;1.93;1.73;;;21.70;69.90;;;;;;4986860;28;20525;-73
2023/03/16 12:09:22;;;;;;;2.10;1.90;;;20.80;71.80;;;;;;4969655;28;20499;-72
2023/03/16 12:11:55;;;;;;;2.13;2.00;;;20.60;72.20;;;;;;4972887;28;20478;-73
2023/03/16 12:14:28;;;;;;;2.50;2.30;;;20.00;73.30;;;;;;4963166;28;20555;-74
2023/03/16 12:16:59;;;;;;;2.13;1.90;;;19.10;71.90;;;;;;4955975;28;20212;-74
2023/03/16 12:19:34;;;;;;;2.27;2.07;;;18.60;73.50;;;;;;4960759;28;20482;-74
2023/03/16 12:22:07;;;;;;;2.00;1.80;;;18.80;73.10;;;;;;4956524;28;20478;-74
2023/03/16 12:24:44;;;;;;;3.90;2.40;;;19.70;75.70;;;;;;4954278;28;20494;-74
2023/03/16 12:27:16;;;;;;;5.07;2.60;;;20.30;70.70;;;;;;4960219;28;20507;-74
2023/03/16 12:29:55;;;;;;;2.13;1.97;;;20.00;70.10;;;;;;4957788;28;20468;-74
2023/03/16 12:32:33;;;;;;;2.63;2.17;;;19.90;72.40;;;;;;4959022;28;20496;-73
2023/03/16 12:35:08;;;;;;;2.33;2.00;;;20.20;72.80;;;;;;4957388;28;20475;-74
2023/03/16 12:37:42;;;;;;;2.10;1.90;;;20.50;71.80;;;;;;4954808;28;20467;-74
2023/03/16 12:40:33;;;;;;;3.57;2.40;;;20.40;71.70;;;;;;4952665;28;20849;-74
2023/03/16 12:43:14;;;;;;;2.23;2.00;;;20.20;73.20;;;;;;4953150;28;20464;-74
2023/03/16 12:45:54;;;;;;;2.57;1.97;;;19.50;70.20;;;;;;4967798;28;20483;-74
2023/03/16 12:48:27;;;;;;;2.40;2.07;;;19.30;71.10;;;;;;4957612;28;20494;-74
2023/03/16 12:50:56;;;;;;;2.63;2.40;;;19.20;73.70;;;;;;4962557;28;20868;-74
2023/03/16 12:53:29;;;;;;;2.60;2.17;;;19.20;74.70;;;;;;4964615;28;20482;-73
2023/03/16 12:55:57;;;;;;;2.50;2.00;;;18.80;71.80;;;;;;4964521;28;20456;-73
2023/03/16 12:58:26;;;;;;;1.70;1.60;;;18.40;72.60;;;;;;4964301;28;20475;-74
2023/03/16 13:00:59;;;;;;;2.30;2.00;;;18.80;74.70;;;;;;4955315;28;20478;-74
2023/03/16 13:03:28;;;;;;;1.93;1.60;;;19.60;72.40;;;;;;4962628;28;20566;-74
2023/03/16 13:05:59;;;;;;;1.80;1.53;;;20.40;70.80;;;;;;4952393;28;20870;-74
2023/03/16 13:08:27;;;;;;;2.20;1.80;;;20.60;68.30;;;;;;4961028;28;20472;-74
2023/03/16 13:11:03;;;;;;;2.87;2.20;;;20.30;69.00;;;;;;4951546;28;20483;-73
2023/03/16 13:13:31;;;;;;;1.80;1.60;;;20.10;68.50;;;;;;4960799;28;20491;-74
2023/03/16 13:16:09;;;;;;;2.50;1.93;;;19.60;67.70;;;;;;4951019;28;20909;-74